createdAt,value
2018-02-18T00:01:13.571Z,91.20
2018-02-18T00:03:40.202Z,91.20
2018-02-18T00:06:06.867Z,91.30
2018-02-18T00:08:34.214Z,91.60
2018-02-18T00:11:00.767Z,91.60
2018-02-18T00:13:28.147Z,91.70
2018-02-18T00:15:54.856Z,91.60
2018-02-18T00:18:22.163Z,91.30
2018-02-18T00:20:48.779Z,91.30
2018-02-18T00:23:15.345Z,91.30
2018-02-18T00:25:41.884Z,91.30
2018-02-18T00:28:08.433Z,91.30
2018-02-18T00:30:34.988Z,91.30
2018-02-18T00:33:01.568Z,91.40
2018-02-18T00:35:28.078Z,91.50
2018-02-18T00:37:54.635Z,92.00
2018-02-18T00:40:21.235Z,91.60
2018-02-18T00:42:47.814Z,91.60
2018-02-18T00:45:14.391Z,91.80
2018-02-18T00:47:41.119Z,91.90
2018-02-18T00:50:07.697Z,91.90
2018-02-18T00:52:34.269Z,91.60
2018-02-18T00:55:00.807Z,91.70
2018-02-18T00:57:27.378Z,91.80
2018-02-18T00:59:53.883Z,91.40
2018-02-18T01:02:20.436Z,90.90
2018-02-18T01:04:46.959Z,90.40
2018-02-18T01:07:13.555Z,90.20
2018-02-18T01:09:40.824Z,91.30
2018-02-18T01:12:08.091Z,91.50
2018-02-18T01:14:39.215Z,91.70
2018-02-18T01:17:06.563Z,91.90
2018-02-18T01:19:33.162Z,91.90
2018-02-18T01:21:59.735Z,91.30
2018-02-18T01:24:26.284Z,91.30
2018-02-18T01:26:53.284Z,91.30
2018-02-18T01:29:19.842Z,91.00
2018-02-18T01:31:46.366Z,90.90
2018-02-18T01:34:12.879Z,90.90
2018-02-18T01:36:39.535Z,91.40
2018-02-18T01:39:06.067Z,91.30
2018-02-18T01:41:32.643Z,90.90
2018-02-18T01:43:59.947Z,90.60
2018-02-18T01:46:26.526Z,90.60
2018-02-18T01:48:53.064Z,90.60
2018-02-18T01:51:19.614Z,90.50
2018-02-18T01:53:46.900Z,91.00
2018-02-18T01:56:13.447Z,90.90
2018-02-18T01:58:40.007Z,90.60
2018-02-18T02:01:06.581Z,90.50
2018-02-18T02:03:33.844Z,90.40
2018-02-18T02:06:01.043Z,90.40
2018-02-18T02:08:27.444Z,90.40
2018-02-18T02:10:53.882Z,90.30
2018-02-18T02:13:20.370Z,90.20
2018-02-18T02:15:46.821Z,90.20
2018-02-18T02:18:14.038Z,90.20
2018-02-18T02:20:40.475Z,90.20
2018-02-18T02:23:06.927Z,90.40
2018-02-18T02:25:33.358Z,90.80
2018-02-18T02:27:59.845Z,90.80
2018-02-18T02:30:27.003Z,90.40
2018-02-18T02:32:53.463Z,90.40
2018-02-18T02:35:19.860Z,90.20
2018-02-18T02:37:47.050Z,90.50
2018-02-18T02:40:13.498Z,90.50
2018-02-18T02:42:39.908Z,90.60
2018-02-18T02:45:06.354Z,90.30
2018-02-18T02:47:32.769Z,90.10
2018-02-18T02:49:59.201Z,90.10
2018-02-18T02:52:25.630Z,90.20
2018-02-18T02:54:53.181Z,90.10
2018-02-18T02:57:20.389Z,90.20
2018-02-18T02:59:46.815Z,90.20
2018-02-18T03:02:13.243Z,90.40
2018-02-18T03:04:39.660Z,90.50
2018-02-18T03:07:06.274Z,90.80
2018-02-18T03:09:33.441Z,90.50
2018-02-18T03:11:59.825Z,90.40
2018-02-18T03:14:26.237Z,90.10
2018-02-18T03:16:52.677Z,89.30
2018-02-18T03:19:19.133Z,89.10
2018-02-18T03:21:45.576Z,89.00
2018-02-18T03:24:12.022Z,89.60
2018-02-18T03:26:39.180Z,89.30
2018-02-18T03:29:06.323Z,89.00
2018-02-18T03:31:33.506Z,89.10
2018-02-18T03:33:59.924Z,89.10
2018-02-18T03:36:27.103Z,89.20
2018-02-18T03:38:53.534Z,89.20
2018-02-18T03:41:19.962Z,89.40
2018-02-18T03:43:46.393Z,89.90
2018-02-18T03:46:12.798Z,90.00
2018-02-18T03:48:39.972Z,90.40
2018-02-18T03:51:06.401Z,90.40
2018-02-18T03:53:32.838Z,90.00
2018-02-18T03:55:59.366Z,89.60
2018-02-18T03:58:25.830Z,89.70
2018-02-18T04:00:52.281Z,90.00
2018-02-18T04:03:18.709Z,89.90
2018-02-18T04:05:45.110Z,89.50
2018-02-18T04:08:11.837Z,89.00
2018-02-18T04:10:38.296Z,88.90
2018-02-18T04:13:04.717Z,89.20
2018-02-18T04:15:31.130Z,89.10
2018-02-18T04:17:57.581Z,89.50
2018-02-18T04:20:24.030Z,90.00
2018-02-18T04:22:50.421Z,90.10
2018-02-18T04:25:16.863Z,89.60
2018-02-18T04:27:44.018Z,89.30
2018-02-18T04:30:11.206Z,88.90
2018-02-18T04:32:37.625Z,88.90
2018-02-18T04:35:04.117Z,89.40
2018-02-18T04:37:30.561Z,89.40
2018-02-18T04:39:56.996Z,88.80
2018-02-18T04:42:24.145Z,89.70
2018-02-18T04:44:50.593Z,88.90
2018-02-18T04:47:17.725Z,88.80
2018-02-18T04:49:44.158Z,88.70
2018-02-18T04:52:10.603Z,87.80
2018-02-18T04:54:37.038Z,88.00
2018-02-18T04:57:03.445Z,88.60
2018-02-18T04:59:29.898Z,88.70
2018-02-18T05:01:56.297Z,90.20
2018-02-18T05:04:22.718Z,90.60
2018-02-18T05:06:49.121Z,90.70
2018-02-18T05:09:16.305Z,90.20
2018-02-18T05:11:42.744Z,90.10
2018-02-18T05:14:09.230Z,90.10
2018-02-18T05:16:35.692Z,90.20
2018-02-18T05:19:02.129Z,90.50
2018-02-18T05:21:29.396Z,90.90
2018-02-18T05:23:55.820Z,90.90
2018-02-18T05:26:25.243Z,91.00
2018-02-18T05:28:51.633Z,91.00
2018-02-18T05:31:18.781Z,91.10
2018-02-18T05:33:45.944Z,91.50
2018-02-18T05:36:13.105Z,91.20
2018-02-18T05:38:39.546Z,91.20
2018-02-18T05:41:05.970Z,91.30
2018-02-18T05:43:32.384Z,91.40
2018-02-18T05:45:59.582Z,91.60
2018-02-18T05:48:26.039Z,91.60
2018-02-18T05:50:52.487Z,91.60
2018-02-18T05:53:19.646Z,91.80
2018-02-18T05:55:46.871Z,92.00
2018-02-18T05:58:13.284Z,91.90
2018-02-18T06:00:39.725Z,92.00
2018-02-18T06:03:06.159Z,92.10
2018-02-18T06:05:32.573Z,92.20
2018-02-18T06:07:58.984Z,92.30
2018-02-18T06:10:26.192Z,92.40
2018-02-18T06:12:52.722Z,92.40
2018-02-18T06:15:19.467Z,92.40
2018-02-18T06:17:45.865Z,92.60
2018-02-18T06:20:12.310Z,92.60
2018-02-18T06:22:38.766Z,92.70
2018-02-18T06:25:05.200Z,92.70
2018-02-18T06:27:32.048Z,92.70
2018-02-18T06:29:59.720Z,92.80
2018-02-18T06:32:27.273Z,92.80
2018-02-18T06:34:54.846Z,92.90
2018-02-18T06:37:26.187Z,92.90
2018-02-18T06:39:53.748Z,92.90
2018-02-18T06:42:21.304Z,92.90
2018-02-18T06:44:48.975Z,92.70
2018-02-18T06:47:16.526Z,92.50
2018-02-18T06:49:44.087Z,92.10
2018-02-18T06:52:11.647Z,92.00
2018-02-18T06:54:39.104Z,92.10
2018-02-18T06:57:06.666Z,92.10
2018-02-18T06:59:34.327Z,92.10
2018-02-18T07:02:01.992Z,92.10
2018-02-18T07:04:30.577Z,91.80
2018-02-18T07:06:57.317Z,91.80
2018-02-18T07:09:24.877Z,91.40
2018-02-18T07:11:52.442Z,91.20
2018-02-18T07:14:19.998Z,90.80
2018-02-18T07:16:47.564Z,90.60
2018-02-18T07:19:14.410Z,90.60
2018-02-18T07:21:44.932Z,90.50
2018-02-18T07:24:12.493Z,90.00
2018-02-18T07:26:43.227Z,90.00
2018-02-18T07:29:10.793Z,89.30
2018-02-18T07:31:38.454Z,89.00
2018-02-18T07:34:09.802Z,88.20
2018-02-18T07:36:37.462Z,87.70
2018-02-18T07:39:05.028Z,86.90
2018-02-18T07:41:31.867Z,86.90
2018-02-18T07:43:59.329Z,85.30
2018-02-18T07:46:26.896Z,84.10
2018-02-18T07:48:54.445Z,83.60
2018-02-18T07:51:21.290Z,83.40
2018-02-18T07:53:48.964Z,83.40
2018-02-18T07:56:15.796Z,83.40
2018-02-18T07:58:43.356Z,82.70
2018-02-18T08:01:10.199Z,82.50
2018-02-18T08:03:37.045Z,82.00
2018-02-18T08:06:03.988Z,81.70
2018-02-18T08:08:30.739Z,80.80
2018-02-18T08:10:57.371Z,81.20
2018-02-18T08:13:24.214Z,81.30
2018-02-18T08:15:51.773Z,80.20
2018-02-18T08:18:22.611Z,80.20
2018-02-18T08:20:50.175Z,80.20
2018-02-18T08:23:17.732Z,80.00
2018-02-18T08:25:45.394Z,79.50
2018-02-18T08:28:12.239Z,79.50
2018-02-18T08:30:39.084Z,79.60
2018-02-18T08:33:05.924Z,78.70
2018-02-18T08:35:33.904Z,77.60
2018-02-18T08:38:01.465Z,78.10
2018-02-18T08:40:28.923Z,78.10
2018-02-18T08:42:56.177Z,77.90
2018-02-18T08:45:23.219Z,77.00
2018-02-18T08:47:50.469Z,76.70
2018-02-18T08:50:18.542Z,76.20
2018-02-18T08:52:46.306Z,75.80
2018-02-18T08:55:14.172Z,75.60
2018-02-18T08:57:45.728Z,74.80
2018-02-18T09:00:17.180Z,75.00
2018-02-18T09:02:44.741Z,74.20
2018-02-18T09:05:12.301Z,73.30
2018-02-18T09:07:39.865Z,72.40
2018-02-18T09:10:06.837Z,72.40
2018-02-18T09:12:33.657Z,72.90
2018-02-18T09:15:04.388Z,71.00
2018-02-18T09:17:31.231Z,70.70
2018-02-18T09:19:58.081Z,70.80
2018-02-18T09:22:24.921Z,71.20
2018-02-18T09:24:51.863Z,70.70
2018-02-18T09:27:19.028Z,70.20
2018-02-18T09:29:45.860Z,67.90
2018-02-18T09:32:17.317Z,67.80
2018-02-18T09:34:44.155Z,67.80
2018-02-18T09:37:11.819Z,65.80
2018-02-18T09:39:39.377Z,64.50
2018-02-18T09:42:06.225Z,64.40
2018-02-18T09:44:33.068Z,63.50
2018-02-18T09:47:00.539Z,65.00
2018-02-18T09:49:27.366Z,64.90
2018-02-18T09:51:54.208Z,64.50
2018-02-18T09:54:25.661Z,67.70
2018-02-18T09:56:53.224Z,68.60
2018-02-18T09:59:20.781Z,68.70
2018-02-18T10:01:47.627Z,68.70
2018-02-18T10:04:15.083Z,65.40
2018-02-18T10:06:43.565Z,65.30
2018-02-18T10:09:11.229Z,65.60
2018-02-18T10:11:38.084Z,65.60
2018-02-18T10:14:04.986Z,66.50
2018-02-18T10:16:32.203Z,65.80
2018-02-18T10:18:59.627Z,67.10
2018-02-18T10:21:28.518Z,67.10
2018-02-18T10:23:59.385Z,67.00
2018-02-18T10:26:26.215Z,68.00
2018-02-18T10:28:52.944Z,67.20
2018-02-18T10:31:19.893Z,67.20
2018-02-18T10:33:46.627Z,65.60
2018-02-18T10:36:14.222Z,66.80
2018-02-18T10:38:42.065Z,66.80
2018-02-18T10:41:09.545Z,67.10
2018-02-18T10:43:36.373Z,67.10
2018-02-18T10:46:03.202Z,67.00
2018-02-18T10:48:31.705Z,66.60
2018-02-18T10:50:59.453Z,66.50
2018-02-18T10:53:26.912Z,67.10
2018-02-18T10:55:53.751Z,67.00
2018-02-18T10:58:21.219Z,67.20
2018-02-18T11:00:48.054Z,67.10
2018-02-18T11:03:14.903Z,67.30
2018-02-18T11:05:42.559Z,68.50
2018-02-18T11:08:09.412Z,68.50
2018-02-18T11:10:36.248Z,68.40
2018-02-18T11:13:03.091Z,69.10
2018-02-18T11:15:31.268Z,69.40
2018-02-18T11:17:58.828Z,67.40
2018-02-18T11:20:25.773Z,67.40
2018-02-18T11:22:53.362Z,68.10
2018-02-18T11:25:23.967Z,68.10
2018-02-18T11:27:51.527Z,69.20
2018-02-18T11:30:18.685Z,69.20
2018-02-18T11:32:45.522Z,68.80
2018-02-18T11:35:12.368Z,67.20
2018-02-18T11:37:39.822Z,68.50
2018-02-18T11:40:07.384Z,69.40
2018-02-18T11:42:34.842Z,68.70
2018-02-18T11:45:02.401Z,68.40
2018-02-18T11:47:30.062Z,68.20
2018-02-18T11:49:57.623Z,69.30
2018-02-18T11:52:25.183Z,69.20
2018-02-18T11:54:51.931Z,69.20
2018-02-18T11:57:18.768Z,66.70
2018-02-18T11:59:46.226Z,63.70
2018-02-18T12:02:13.786Z,63.80
2018-02-18T12:04:41.390Z,65.10
2018-02-18T12:07:08.191Z,65.00
2018-02-18T12:09:35.034Z,65.90
2018-02-18T12:12:02.595Z,64.50
2018-02-18T12:14:30.156Z,63.50
2018-02-18T12:16:57.716Z,60.60
2018-02-18T12:19:25.189Z,59.50
2018-02-18T12:21:52.029Z,59.50
2018-02-18T12:24:19.588Z,61.40
2018-02-18T12:26:47.142Z,62.60
2018-02-18T12:29:14.702Z,63.70
2018-02-18T12:31:42.158Z,64.20
2018-02-18T12:34:08.899Z,64.10
2018-02-18T12:36:39.519Z,65.40
2018-02-18T12:39:06.990Z,62.70
2018-02-18T12:41:34.550Z,64.10
2018-02-18T12:44:01.291Z,64.10
2018-02-18T12:46:28.853Z,64.70
2018-02-18T12:48:56.413Z,64.50
2018-02-18T12:51:23.771Z,64.40
2018-02-18T12:53:51.330Z,63.80
2018-02-18T12:56:18.889Z,63.50
2018-02-18T12:58:46.459Z,64.40
2018-02-18T13:01:13.295Z,64.40
2018-02-18T13:03:40.138Z,65.80
2018-02-18T13:06:07.801Z,63.00
2018-02-18T13:08:35.369Z,64.10
2018-02-18T13:11:02.213Z,64.10
2018-02-18T13:13:28.946Z,64.00
2018-02-18T13:15:56.516Z,64.30
2018-02-18T13:18:27.962Z,64.60
2018-02-18T13:20:55.538Z,66.10
2018-02-18T13:23:22.365Z,66.00
2018-02-18T13:25:49.922Z,64.90
2018-02-18T13:28:17.485Z,65.70
2018-02-18T13:30:45.044Z,65.70
2018-02-18T13:33:11.887Z,65.70
2018-02-18T13:35:39.558Z,64.50
2018-02-18T13:38:07.212Z,64.20
2018-02-18T13:40:34.469Z,64.10
2018-02-18T13:43:02.172Z,64.10
2018-02-18T13:45:29.293Z,64.10
2018-02-18T13:47:56.232Z,64.00
2018-02-18T13:50:23.687Z,66.30
2018-02-18T13:52:51.128Z,66.40
2018-02-18T13:55:18.103Z,66.30
2018-02-18T13:57:45.041Z,66.80
2018-02-18T14:00:11.775Z,67.40
2018-02-18T14:02:40.263Z,68.40
2018-02-18T14:05:07.112Z,68.40
2018-02-18T14:07:34.667Z,68.50
2018-02-18T14:10:01.513Z,68.40
2018-02-18T14:12:29.070Z,69.70
2018-02-18T14:14:55.928Z,69.60
2018-02-18T14:17:22.755Z,68.60
2018-02-18T14:19:50.316Z,69.10
2018-02-18T14:22:17.159Z,69.00
2018-02-18T14:24:44.719Z,69.30
2018-02-18T14:27:12.280Z,69.50
2018-02-18T14:29:39.737Z,70.50
2018-02-18T14:32:07.205Z,71.00
2018-02-18T14:34:34.761Z,71.40
2018-02-18T14:37:01.515Z,71.40
2018-02-18T14:39:28.340Z,71.70
2018-02-18T14:42:08.293Z,73.50
2018-02-18T14:44:48.058Z,73.70
2018-02-18T14:47:27.171Z,73.70
2018-02-18T14:50:06.098Z,73.90
2018-02-18T14:52:45.759Z,74.10
2018-02-18T14:55:30.508Z,74.30
2018-02-18T14:57:57.350Z,74.20
2018-02-18T15:00:24.193Z,74.70
2018-02-18T15:02:51.767Z,73.60
2018-02-18T15:05:18.599Z,73.50
2018-02-18T15:07:46.159Z,73.80
2018-02-18T15:10:13.005Z,73.80
2018-02-18T15:12:40.053Z,74.00
2018-02-18T15:15:06.896Z,74.20
2018-02-18T15:17:34.454Z,74.40
2018-02-18T15:20:02.017Z,73.90
2018-02-18T15:22:29.542Z,74.50
2018-02-18T15:24:57.545Z,74.50
2018-02-18T15:27:25.109Z,75.00
2018-02-18T15:29:51.952Z,74.90
2018-02-18T15:32:19.512Z,75.70
2018-02-18T15:34:47.072Z,76.30
2018-02-18T15:37:13.916Z,76.10
2018-02-18T15:39:40.763Z,76.90
2018-02-18T15:42:08.336Z,76.90
2018-02-18T15:44:35.267Z,76.70
2018-02-18T15:47:02.930Z,77.20
2018-02-18T15:49:29.778Z,77.00
2018-02-18T15:51:57.537Z,78.70
2018-02-18T15:54:25.097Z,79.20
2018-02-18T15:56:51.942Z,79.10
2018-02-18T15:59:19.503Z,80.20
2018-02-18T16:01:46.354Z,80.20
2018-02-18T16:04:13.197Z,80.60
2018-02-18T16:06:40.042Z,81.10
2018-02-18T16:09:06.877Z,81.40
2018-02-18T16:11:33.824Z,81.50
2018-02-18T16:14:00.666Z,81.90
2018-02-18T16:16:28.228Z,82.80
2018-02-18T16:18:55.076Z,82.70
2018-02-18T16:21:22.630Z,83.90
2018-02-18T16:23:50.097Z,83.80
2018-02-18T16:26:16.937Z,83.80
2018-02-18T16:28:44.801Z,85.10
2018-02-18T16:31:12.464Z,85.30
2018-02-18T16:33:40.043Z,85.70
2018-02-18T16:36:06.869Z,85.60
2018-02-18T16:38:33.611Z,85.90
2018-02-18T16:41:01.170Z,86.40
2018-02-18T16:43:28.731Z,86.80
2018-02-18T16:45:55.575Z,86.80
2018-02-18T16:48:22.419Z,87.10
2018-02-18T16:50:49.982Z,86.60
2018-02-18T16:53:17.641Z,86.20
2018-02-18T16:55:44.397Z,86.10
2018-02-18T16:58:11.232Z,87.60
2018-02-18T17:00:38.787Z,85.00
2018-02-18T17:03:06.349Z,84.70
2018-02-18T17:05:33.910Z,84.60
2018-02-18T17:08:01.367Z,84.70
2018-02-18T17:10:28.210Z,84.70
2018-02-18T17:12:54.965Z,84.40
2018-02-18T17:15:21.803Z,84.70
2018-02-18T17:17:48.642Z,84.90
2018-02-18T17:20:15.497Z,84.80
2018-02-18T17:22:42.325Z,85.10
2018-02-18T17:25:09.888Z,85.30
2018-02-18T17:27:37.457Z,85.50
2018-02-18T17:30:04.290Z,85.40
2018-02-18T17:32:31.859Z,85.90
2018-02-18T17:34:58.695Z,85.80
2018-02-18T17:37:26.263Z,86.00
2018-02-18T17:39:53.815Z,85.50
2018-02-18T17:42:26.601Z,85.50
2018-02-18T17:44:53.444Z,84.50
2018-02-18T17:47:21.004Z,85.00
2018-02-18T17:49:47.750Z,85.00
2018-02-18T17:52:14.591Z,85.30
2018-02-18T17:54:42.149Z,85.80
2018-02-18T17:57:09.713Z,86.50
2018-02-18T17:59:36.465Z,85.70
2018-02-18T18:02:03.501Z,86.00
2018-02-18T18:04:31.074Z,86.20
2018-02-18T18:06:58.012Z,86.10
2018-02-18T18:09:25.685Z,84.50
2018-02-18T18:11:56.313Z,84.40
2018-02-18T18:14:23.149Z,84.40
2018-02-18T18:16:50.705Z,84.00
2018-02-18T18:19:18.272Z,83.80
2018-02-18T18:21:46.038Z,84.00
2018-02-18T18:24:13.591Z,84.40
2018-02-18T18:26:40.333Z,84.40
2018-02-18T18:29:07.899Z,83.80
2018-02-18T18:32:00.234Z,83.30
2018-02-18T18:37:24.746Z,83.20
2018-02-18T18:39:52.314Z,83.20
2018-02-18T18:42:20.076Z,83.80
2018-02-18T18:44:47.631Z,84.10
2018-02-18T18:47:19.090Z,84.50
2018-02-18T18:49:59.957Z,84.40
2018-02-18T18:58:27.460Z,84.10
2018-02-18T19:00:59.012Z,82.50
2018-02-18T19:03:26.575Z,82.10
2018-02-18T19:05:54.134Z,82.50
2018-02-18T19:08:21.591Z,83.20
2018-02-18T19:10:48.434Z,83.20
2018-02-18T19:13:15.996Z,83.40
2018-02-18T19:15:43.557Z,83.40
2018-02-18T19:18:11.118Z,83.60
2018-02-18T19:20:37.961Z,83.60
2018-02-18T19:23:05.521Z,83.70
2018-02-18T19:25:33.183Z,83.80
2018-02-18T19:28:00.745Z,83.40
2018-02-18T19:30:27.691Z,83.30
2018-02-18T19:32:54.534Z,83.50
2018-02-18T19:35:22.100Z,83.40
2018-02-18T19:37:48.849Z,83.40
2018-02-18T19:40:15.680Z,83.20
2018-02-18T19:42:43.245Z,82.50
2018-02-18T19:45:10.803Z,81.60
2018-02-18T19:47:37.645Z,81.60
2018-02-18T19:50:04.488Z,81.20
2018-02-18T19:52:32.049Z,81.30
2018-02-18T19:54:59.616Z,81.30
2018-02-18T19:57:27.169Z,80.90
2018-02-18T19:59:54.118Z,80.90
2018-02-18T20:02:21.574Z,80.80
2018-02-18T20:04:49.034Z,81.10
2018-02-18T20:07:16.597Z,81.10
2018-02-18T20:09:43.437Z,80.30
2018-02-18T20:12:10.178Z,80.10
2018-02-18T20:14:37.023Z,80.00
2018-02-18T20:17:03.865Z,79.10
2018-02-18T20:19:31.425Z,80.40
2018-02-18T20:21:58.985Z,81.40
2018-02-18T20:24:25.728Z,80.50
2018-02-18T20:26:53.196Z,80.40
2018-02-18T20:29:19.927Z,79.90
2018-02-18T20:31:47.489Z,79.80
2018-02-18T20:34:14.329Z,79.70
2018-02-18T20:36:41.890Z,80.20
2018-02-18T20:39:08.632Z,80.20
2018-02-18T20:41:36.193Z,79.50
2018-02-18T20:44:03.860Z,79.50
2018-02-18T20:46:31.314Z,79.80
2018-02-18T20:48:58.874Z,79.90
2018-02-18T20:51:26.434Z,79.80
2018-02-18T20:53:53.996Z,80.40
2018-02-18T20:56:21.555Z,79.70
2018-02-18T20:58:48.297Z,79.70
2018-02-18T21:01:15.560Z,79.70
2018-02-18T21:03:42.394Z,79.70
2018-02-18T21:06:09.953Z,79.90
2018-02-18T21:08:37.616Z,80.20
2018-02-18T21:11:05.384Z,80.20
2018-02-18T21:13:32.941Z,80.60
2018-02-18T21:16:00.105Z,80.60
2018-02-18T21:18:26.935Z,80.60
2018-02-18T21:20:54.601Z,81.40
2018-02-18T21:23:21.445Z,81.40
2018-02-18T21:25:49.005Z,82.20
2018-02-18T21:28:16.568Z,82.20
2018-02-18T21:30:43.407Z,82.20
2018-02-18T21:33:10.979Z,83.00
2018-02-18T21:35:39.247Z,83.20
2018-02-18T21:38:06.099Z,83.20
2018-02-18T21:40:32.933Z,83.50
2018-02-18T21:43:00.494Z,84.00
2018-02-18T21:45:28.055Z,84.30
2018-02-18T21:47:55.615Z,84.90
2018-02-18T21:50:22.559Z,84.70
2018-02-18T21:52:49.408Z,85.40
2018-02-18T21:55:16.974Z,85.30
2018-02-18T21:57:43.915Z,85.30
2018-02-18T22:00:11.471Z,86.10
2018-02-18T22:02:39.036Z,86.40
2018-02-18T22:05:06.494Z,86.50
2018-02-18T22:07:34.366Z,86.40
2018-02-18T22:10:01.919Z,85.60
2018-02-18T22:12:29.478Z,85.60
2018-02-18T22:14:57.041Z,85.70
2018-02-18T22:17:24.600Z,86.20
2018-02-18T22:19:52.377Z,86.70
2018-02-18T22:22:19.928Z,86.60
2018-02-18T22:24:47.485Z,86.90
2018-02-18T22:27:14.951Z,86.50
2018-02-18T22:29:41.788Z,86.50
2018-02-18T22:32:08.528Z,84.90
2018-02-18T22:34:36.196Z,85.50
2018-02-18T22:37:03.755Z,85.50
2018-02-18T22:39:31.725Z,84.60
2018-02-18T22:41:59.287Z,86.30
2018-02-18T22:44:26.134Z,86.30
2018-02-18T22:46:53.687Z,86.20
2018-02-18T22:49:21.248Z,86.90
2018-02-18T22:51:48.199Z,86.80
2018-02-18T22:54:16.682Z,89.00
2018-02-18T22:56:43.524Z,88.30
2018-02-18T22:59:10.365Z,87.40
2018-02-18T23:01:37.924Z,88.80
2018-02-18T23:04:04.665Z,88.80
2018-02-18T23:06:32.226Z,90.10
2018-02-18T23:08:59.069Z,90.10
2018-02-18T23:11:26.630Z,90.50
2018-02-18T23:13:53.473Z,90.50
2018-02-18T23:16:21.034Z,90.80
2018-02-18T23:18:47.878Z,90.70
2018-02-18T23:21:15.335Z,91.10
2018-02-18T23:23:42.897Z,91.20
2018-02-18T23:26:09.742Z,91.20
2018-02-18T23:28:36.584Z,91.30
2018-02-18T23:31:04.147Z,91.10
2018-02-18T23:33:30.884Z,91.10
2018-02-18T23:35:57.626Z,91.10
2018-02-18T23:38:24.471Z,91.00
2018-02-18T23:40:52.033Z,90.90
2018-02-18T23:43:18.771Z,90.90
2018-02-18T23:45:46.474Z,91.10
2018-02-18T23:48:14.097Z,91.30
2018-02-18T23:50:41.661Z,91.30
2018-02-18T23:53:09.218Z,91.60
2018-02-18T23:55:36.777Z,91.40
2018-02-18T23:58:03.623Z,91.40
